BQH weather

London Biggin Hill Airport
London, England, United Kingdom

Public forecast

Using degrees Celsius for public forecast. Weather courtesy of forecast.io.

METAR (pilot weather report)

Retrieved 2019/03/23 10:20 UTC (27 minutes ago):

EGKB 231020Z 01007KT 340V040 9999 BKN030 09/05 Q1032

TAF (pilot weather forecast)

Forecast is more than 12 hours old.

Retrieved 2018/10/15 23:27 UTC (5 months ago):

TAF TAF EGKB 152321Z 1523/1622 CNL